AFR1 KJFK-LFPG
Flight info
| Callsign | AFR1 |
|---|---|
| Flight time | N/A |
| Altitude | 35000 |
| Route | DCT MERIT DCT HFD DCT PUT DCT WITCH DCT ALLEX N323A ELSIR/M082F350 DCT 50N050W 53N040W 54N030W 54N020W DCT MALOT DCT GISTI/N0468F350 DCT LESLU DCT ANNET UM25 LUKIP LUKIP9E |
| Aircraft | B77W/H-SDE1E2E3FGHIJ2J3J4J5M1RWXY/LB1D1 |
Departure
| Time | 2026-05-09 18:27 |
|---|---|
| Airport | John F. Kennedy International Airport (KJFK) |
Arrival
| Time | N/A |
|---|---|
| Airport | Charles de Gaulle International Airport (LFPG) |
| Time | Latitude | Longitude | Altitude | Speed | Heading |
|---|---|---|---|---|---|
| 2026-05-09 17:49 | 40.64283 | -73.79193 | 20 ft | 0 kts | 105° |
| 2026-05-09 17:51 | 40.64283 | -73.79192 | 20 ft | 0 kts | 105° |
| 2026-05-09 17:56 | 40.64283 | -73.79193 | 20 ft | 0 kts | 105° |
| 2026-05-09 18:10 | 40.64287 | -73.79212 | 25 ft | 2 kts | 105° |
| 2026-05-09 18:11 | 40.64291 | -73.79233 | 25 ft | 2 kts | 105° |
| 2026-05-09 18:11 | 40.64296 | -73.79253 | 26 ft | 2 kts | 105° |
| 2026-05-09 18:11 | 40.64303 | -73.79272 | 26 ft | 2 kts | 139° |
| 2026-05-09 18:11 | 40.64317 | -73.79283 | 25 ft | 2 kts | 156° |
| 2026-05-09 18:12 | 40.64332 | -73.79289 | 24 ft | 2 kts | 178° |
| 2026-05-09 18:12 | 40.64347 | -73.79288 | 23 ft | 0 kts | 186° |
| 2026-05-09 18:12 | 40.64333 | -73.79295 | 24 ft | 2 kts | 208° |
| 2026-05-09 18:12 | 40.64321 | -73.79306 | 26 ft | 2 kts | 213° |
| 2026-05-09 18:13 | 40.64308 | -73.79317 | 24 ft | 2 kts | 215° |
| 2026-05-09 18:13 | 40.64304 | -73.79321 | 23 ft | 0 kts | 216° |
| 2026-05-09 18:18 | 40.64304 | -73.79322 | 22 ft | 1 kts | 216° |
| 2026-05-09 18:18 | 40.64290 | -73.79335 | 22 ft | 5 kts | 216° |
| 2026-05-09 18:18 | 40.64255 | -73.79377 | 20 ft | 8 kts | 225° |
| 2026-05-09 18:18 | 40.64221 | -73.79431 | 22 ft | 8 kts | 237° |
| 2026-05-09 18:19 | 40.64201 | -73.79497 | 21 ft | 8 kts | 249° |
| 2026-05-09 18:19 | 40.64142 | -73.79605 | 21 ft | 8 kts | 197° |
| 2026-05-09 18:19 | 40.64088 | -73.79599 | 23 ft | 8 kts | 166° |
| 2026-05-09 18:20 | 40.64034 | -73.79566 | 25 ft | 10 kts | 149° |
| 2026-05-09 18:20 | 40.63972 | -73.79482 | 25 ft | 15 kts | 123° |
| 2026-05-09 18:20 | 40.63909 | -73.79344 | 24 ft | 20 kts | 120° |
| 2026-05-09 18:20 | 40.63828 | -73.79168 | 22 ft | 25 kts | 121° |
| 2026-05-09 18:21 | 40.63733 | -73.78959 | 23 ft | 28 kts | 121° |
| 2026-05-09 18:21 | 40.63635 | -73.78738 | 24 ft | 28 kts | 120° |
| 2026-05-09 18:21 | 40.63534 | -73.78520 | 26 ft | 28 kts | 121° |
| 2026-05-09 18:21 | 40.63436 | -73.78299 | 25 ft | 28 kts | 120° |
| 2026-05-09 18:22 | 40.63339 | -73.78077 | 24 ft | 28 kts | 109° |
| 2026-05-09 18:22 | 40.63369 | -73.77836 | 25 ft | 28 kts | 53° |
| 2026-05-09 18:22 | 40.63528 | -73.77692 | 23 ft | 28 kts | 30° |
| 2026-05-09 18:22 | 40.63695 | -73.77561 | 22 ft | 28 kts | 30° |
| 2026-05-09 18:23 | 40.63862 | -73.77431 | 21 ft | 28 kts | 31° |
| 2026-05-09 18:23 | 40.64029 | -73.77299 | 25 ft | 28 kts | 31° |
| 2026-05-09 18:23 | 40.64193 | -73.77170 | 24 ft | 28 kts | 30° |
| 2026-05-09 18:23 | 40.64362 | -73.77042 | 21 ft | 28 kts | 30° |
| 2026-05-09 18:24 | 40.64544 | -73.76960 | 20 ft | 28 kts | 26° |
| 2026-05-09 18:24 | 40.64710 | -73.76830 | 24 ft | 28 kts | 31° |
| 2026-05-09 18:24 | 40.64878 | -73.76699 | 21 ft | 28 kts | 31° |
| 2026-05-09 18:25 | 40.65071 | -73.76546 | 20 ft | 8 kts | 38° |
| 2026-05-09 18:25 | 40.65090 | -73.76478 | 20 ft | 8 kts | 98° |
| 2026-05-09 18:25 | 40.65070 | -73.76406 | 21 ft | 8 kts | 116° |
| 2026-05-09 18:25 | 40.65026 | -73.76364 | 20 ft | 8 kts | 182° |
| 2026-05-09 18:26 | 40.64965 | -73.76400 | 20 ft | 11 kts | 210° |
| 2026-05-09 18:26 | 40.64850 | -73.76491 | 21 ft | 36 kts | 211° |
| 2026-05-09 18:26 | 40.64389 | -73.76851 | 21 ft | 121 kts | 211° |
| 2026-05-09 18:26 | 40.63432 | -73.77604 | 55 ft | 191 kts | 211° |
| 2026-05-09 18:27 | 40.62248 | -73.78549 | 687 ft | 204 kts | 211° |
| 2026-05-09 18:27 | 40.61439 | -73.79198 | 1352 ft | 204 kts | 213° |
| 2026-05-09 18:27 | 40.59773 | -73.80447 | 2413 ft | 220 kts | 210° |
| 2026-05-09 18:27 | 40.58375 | -73.81371 | 3240 ft | 227 kts | 208° |
| 2026-05-09 18:28 | 40.56942 | -73.82296 | 4204 ft | 228 kts | 207° |
| 2026-05-09 18:28 | 40.55410 | -73.82838 | 4842 ft | 242 kts | 185° |
| 2026-05-09 18:28 | 40.53723 | -73.82339 | 4989 ft | 259 kts | 158° |
| 2026-05-09 18:28 | 40.52340 | -73.80760 | 5002 ft | 273 kts | 130° |
| 2026-05-09 18:29 | 40.51621 | -73.78406 | 4990 ft | 285 kts | 102° |
| 2026-05-09 18:29 | 40.51729 | -73.75776 | 5003 ft | 292 kts | 82° |
| 2026-05-09 18:29 | 40.52354 | -73.73212 | 4987 ft | 298 kts | 64° |
| 2026-05-09 18:29 | 40.53414 | -73.70844 | 5063 ft | 302 kts | 59° |
| 2026-05-09 18:30 | 40.54573 | -73.68537 | 5854 ft | 304 kts | 58° |
| 2026-05-09 18:30 | 40.55765 | -73.66219 | 6791 ft | 307 kts | 58° |
| 2026-05-09 18:30 | 40.56960 | -73.63910 | 7666 ft | 311 kts | 57° |
| 2026-05-09 18:30 | 40.58192 | -73.61534 | 8519 ft | 316 kts | 57° |
| 2026-05-09 18:31 | 40.59443 | -73.59118 | 9375 ft | 321 kts | 57° |
| 2026-05-09 18:31 | 40.60765 | -73.56734 | 10156 ft | 324 kts | 45° |
| 2026-05-09 18:31 | 40.62653 | -73.55069 | 10625 ft | 337 kts | 20° |
| 2026-05-09 18:31 | 40.64912 | -73.53910 | 10824 ft | 361 kts | 17° |
| 2026-05-09 18:32 | 40.67360 | -73.52748 | 11057 ft | 386 kts | 17° |
| 2026-05-09 18:32 | 40.69953 | -73.51488 | 11465 ft | 405 kts | 17° |
| 2026-05-09 18:32 | 40.72577 | -73.50155 | 12187 ft | 413 kts | 18° |
| 2026-05-09 18:32 | 40.75266 | -73.48737 | 13050 ft | 419 kts | 18° |
| 2026-05-09 18:33 | 40.77977 | -73.47272 | 13921 ft | 423 kts | 18° |
| 2026-05-09 18:33 | 40.80715 | -73.45771 | 14733 ft | 427 kts | 18° |
| 2026-05-09 18:33 | 40.83469 | -73.44250 | 15516 ft | 432 kts | 18° |
| 2026-05-09 18:33 | 40.86255 | -73.42706 | 16316 ft | 435 kts | 18° |
| 2026-05-09 18:34 | 40.89066 | -73.41146 | 17004 ft | 438 kts | 18° |
| 2026-05-09 18:34 | 40.91900 | -73.39574 | 17644 ft | 445 kts | 18° |
| 2026-05-09 18:34 | 40.94730 | -73.38003 | 18427 ft | 448 kts | 18° |
| 2026-05-09 18:34 | 40.97617 | -73.36399 | 19127 ft | 452 kts | 18° |
| 2026-05-09 18:35 | 41.00534 | -73.34779 | 19763 ft | 457 kts | 18° |
| 2026-05-09 18:35 | 41.03497 | -73.33132 | 20384 ft | 463 kts | 19° |
| 2026-05-09 18:35 | 41.06485 | -73.31469 | 21014 ft | 469 kts | 19° |
| 2026-05-09 18:35 | 41.09503 | -73.29786 | 21662 ft | 473 kts | 19° |
| 2026-05-09 18:36 | 41.12560 | -73.28080 | 22306 ft | 478 kts | 19° |
| 2026-05-09 18:36 | 41.15651 | -73.26353 | 22934 ft | 483 kts | 19° |
| 2026-05-09 18:36 | 41.18768 | -73.24610 | 23537 ft | 488 kts | 19° |
| 2026-05-09 18:36 | 41.21910 | -73.22851 | 24040 ft | 492 kts | 19° |
| 2026-05-09 18:37 | 41.25085 | -73.21072 | 24548 ft | 496 kts | 19° |
| 2026-05-09 18:37 | 41.28283 | -73.19277 | 25043 ft | 500 kts | 19° |
| 2026-05-09 18:37 | 41.31464 | -73.17492 | 25547 ft | 504 kts | 18° |
| 2026-05-09 18:37 | 41.34655 | -73.15537 | 25966 ft | 510 kts | 26° |
| 2026-05-09 18:38 | 41.37593 | -73.12799 | 26358 ft | 521 kts | 38° |
| 2026-05-09 18:38 | 41.40146 | -73.09328 | 26816 ft | 528 kts | 49° |
| 2026-05-09 18:38 | 41.42208 | -73.05261 | 27243 ft | 532 kts | 59° |
| 2026-05-09 18:40 | 41.55415 | -72.74595 | 30546 ft | 548 kts | 58° |
| 2026-05-09 18:40 | 41.57336 | -72.70217 | 31079 ft | 545 kts | 58° |
| 2026-05-09 18:40 | 41.59248 | -72.65847 | 31585 ft | 544 kts | 58° |
| 2026-05-09 18:41 | 41.61154 | -72.61476 | 32023 ft | 543 kts | 58° |
| 2026-05-09 18:41 | 41.63052 | -72.57116 | 32471 ft | 542 kts | 58° |
| 2026-05-09 18:41 | 41.64950 | -72.52765 | 32915 ft | 540 kts | 58° |
| 2026-05-09 18:41 | 41.66876 | -72.48446 | 33352 ft | 539 kts | 57° |
| 2026-05-09 18:42 | 41.68820 | -72.44150 | 33774 ft | 538 kts | 57° |
| 2026-05-09 18:42 | 41.70735 | -72.39931 | 34125 ft | 537 kts | 57° |
| 2026-05-09 18:42 | 41.72675 | -72.35650 | 34418 ft | 538 kts | 57° |
| 2026-05-09 18:42 | 41.74607 | -72.31367 | 34688 ft | 538 kts | 57° |
| 2026-05-09 18:43 | 41.76544 | -72.27052 | 34896 ft | 540 kts | 57° |
| 2026-05-09 18:43 | 41.80441 | -72.18337 | 34953 ft | 549 kts | 57° |
| 2026-05-09 18:44 | 41.84384 | -72.09488 | 34967 ft | 556 kts | 57° |
| 2026-05-09 18:44 | 41.88352 | -72.00555 | 34967 ft | 562 kts | 57° |
| 2026-05-09 18:45 | 41.92379 | -71.91469 | 34971 ft | 566 kts | 57° |
| 2026-05-09 18:45 | 41.96857 | -71.82859 | 34987 ft | 564 kts | 47° |
| 2026-05-09 18:46 | 42.02277 | -71.75296 | 34985 ft | 559 kts | 39° |
| 2026-05-09 18:46 | 42.07933 | -71.68069 | 34974 ft | 558 kts | 39° |
| 2026-05-09 18:47 | 42.13505 | -71.60869 | 34998 ft | 560 kts | 40° |
| 2026-05-09 18:47 | 42.19106 | -71.53520 | 34977 ft | 559 kts | 40° |
| 2026-05-09 18:48 | 42.24626 | -71.46229 | 34985 ft | 556 kts | 40° |
| 2026-05-09 18:48 | 42.30147 | -71.38927 | 34993 ft | 553 kts | 40° |
| 2026-05-09 18:49 | 42.35639 | -71.31653 | 34991 ft | 551 kts | 40° |
| 2026-05-09 18:49 | 42.41098 | -71.24406 | 35010 ft | 549 kts | 40° |
| 2026-05-09 18:50 | 42.46526 | -71.17182 | 35009 ft | 551 kts | 40° |
| 2026-05-09 18:50 | 42.52016 | -71.09855 | 35010 ft | 553 kts | 40° |
| 2026-05-09 18:51 | 42.56574 | -71.03756 | 35017 ft | 554 kts | 40° |
| 2026-05-09 18:51 | 42.62971 | -70.95173 | 35017 ft | 556 kts | 40° |
| 2026-05-09 18:52 | 42.67477 | -70.88906 | 35007 ft | 559 kts | 45° |
| 2026-05-09 18:52 | 42.72123 | -70.80364 | 35009 ft | 564 kts | 54° |
| 2026-05-09 18:53 | 42.76325 | -70.71334 | 35010 ft | 565 kts | 55° |
| 2026-05-09 18:53 | 42.80525 | -70.62282 | 35009 ft | 565 kts | 55° |
| 2026-05-09 18:54 | 42.84742 | -70.53302 | 35016 ft | 565 kts | 54° |
| 2026-05-09 18:54 | 42.88996 | -70.44281 | 35015 ft | 565 kts | 54° |
| 2026-05-09 18:55 | 42.93226 | -70.35290 | 35015 ft | 565 kts | 54° |
| 2026-05-09 18:55 | 42.97466 | -70.26234 | 35023 ft | 566 kts | 54° |
| 2026-05-09 18:56 | 43.01701 | -70.17157 | 35017 ft | 566 kts | 54° |
| 2026-05-09 18:56 | 43.05932 | -70.08060 | 35024 ft | 567 kts | 54° |
| 2026-05-09 18:57 | 43.10164 | -69.98934 | 35025 ft | 567 kts | 54° |
| 2026-05-09 18:57 | 43.14363 | -69.89851 | 35030 ft | 567 kts | 54° |
| 2026-05-09 18:58 | 43.18582 | -69.80695 | 35035 ft | 567 kts | 54° |
| 2026-05-09 18:58 | 43.22789 | -69.71538 | 35038 ft | 567 kts | 54° |
| 2026-05-09 18:59 | 43.26967 | -69.62415 | 35041 ft | 567 kts | 54° |
| 2026-05-09 18:59 | 43.31155 | -69.53241 | 35048 ft | 567 kts | 54° |
| 2026-05-09 19:00 | 43.35343 | -69.44041 | 35052 ft | 567 kts | 54° |
| 2026-05-09 19:00 | 43.41581 | -69.30282 | 35059 ft | 567 kts | 54° |
| 2026-05-09 19:01 | 43.45749 | -69.21053 | 35060 ft | 568 kts | 54° |
| 2026-05-09 19:01 | 43.49919 | -69.11789 | 35063 ft | 568 kts | 55° |
| 2026-05-09 19:02 | 43.54083 | -69.02508 | 35065 ft | 569 kts | 55° |
| 2026-05-09 19:02 | 43.58224 | -68.93251 | 35063 ft | 569 kts | 55° |
| 2026-05-09 19:03 | 43.62383 | -68.83923 | 35064 ft | 570 kts | 55° |
| 2026-05-09 19:03 | 43.66506 | -68.74646 | 35069 ft | 570 kts | 55° |
| 2026-05-09 19:04 | 43.70647 | -68.65299 | 35071 ft | 570 kts | 55° |
| 2026-05-09 19:04 | 43.74786 | -68.55926 | 35075 ft | 570 kts | 55° |
| 2026-05-09 19:05 | 43.78917 | -68.46542 | 35078 ft | 570 kts | 55° |
| 2026-05-09 19:05 | 43.83020 | -68.37190 | 35085 ft | 571 kts | 55° |
| 2026-05-09 19:06 | 43.87145 | -68.27758 | 35079 ft | 570 kts | 55° |
| 2026-05-09 19:06 | 43.91230 | -68.18385 | 35088 ft | 570 kts | 55° |
| 2026-05-09 19:07 | 43.95325 | -68.08961 | 35092 ft | 570 kts | 55° |
| 2026-05-09 19:07 | 43.99415 | -67.99517 | 35088 ft | 570 kts | 55° |
| 2026-05-09 19:08 | 44.03466 | -67.90130 | 35088 ft | 569 kts | 55° |
| 2026-05-09 19:08 | 44.07531 | -67.80682 | 35093 ft | 569 kts | 55° |
| 2026-05-09 19:09 | 44.11590 | -67.71217 | 35100 ft | 568 kts | 55° |
| 2026-05-09 19:09 | 44.15632 | -67.61761 | 35079 ft | 568 kts | 55° |
| 2026-05-09 19:10 | 44.19643 | -67.52344 | 35093 ft | 567 kts | 55° |
| 2026-05-09 19:10 | 44.23668 | -67.42865 | 35085 ft | 567 kts | 55° |
| 2026-05-09 19:11 | 44.27653 | -67.33446 | 35097 ft | 566 kts | 55° |
| 2026-05-09 19:11 | 44.31646 | -67.23979 | 35100 ft | 565 kts | 55° |
| 2026-05-09 19:12 | 44.35633 | -67.14497 | 35099 ft | 565 kts | 55° |
| 2026-05-09 19:12 | 44.39585 | -67.05064 | 35099 ft | 564 kts | 55° |
| 2026-05-09 19:13 | 44.43578 | -66.95594 | 35098 ft | 563 kts | 54° |
| 2026-05-09 19:13 | 44.47692 | -66.86259 | 35097 ft | 562 kts | 53° |
| 2026-05-09 19:14 | 44.51811 | -66.77007 | 35099 ft | 562 kts | 53° |
| 2026-05-09 19:14 | 44.55926 | -66.67676 | 35099 ft | 563 kts | 53° |
| 2026-05-09 19:15 | 44.60030 | -66.58280 | 35098 ft | 562 kts | 53° |
| 2026-05-09 19:15 | 44.64086 | -66.48949 | 35097 ft | 562 kts | 53° |
| 2026-05-09 19:16 | 44.68150 | -66.39573 | 35099 ft | 562 kts | 53° |
| 2026-05-09 19:16 | 44.72216 | -66.30167 | 35095 ft | 562 kts | 53° |
| 2026-05-09 19:17 | 44.76243 | -66.20823 | 35100 ft | 561 kts | 53° |
| 2026-05-09 19:17 | 44.80286 | -66.11409 | 35097 ft | 561 kts | 54° |
| 2026-05-09 19:18 | 44.84320 | -66.01987 | 35103 ft | 561 kts | 54° |
| 2026-05-09 19:18 | 44.88318 | -65.92615 | 35100 ft | 560 kts | 54° |
| 2026-05-09 19:19 | 44.92332 | -65.83175 | 35100 ft | 560 kts | 54° |
| 2026-05-09 19:19 | 44.96337 | -65.73727 | 35095 ft | 560 kts | 54° |
| 2026-05-09 19:20 | 45.00328 | -65.64277 | 35098 ft | 559 kts | 54° |
| 2026-05-09 19:20 | 45.04283 | -65.54883 | 35100 ft | 558 kts | 54° |
| 2026-05-09 19:21 | 45.08249 | -65.45432 | 35097 ft | 558 kts | 54° |
| 2026-05-09 19:21 | 45.12203 | -65.35977 | 35098 ft | 557 kts | 54° |
| 2026-05-09 19:22 | 45.16145 | -65.26518 | 35093 ft | 557 kts | 54° |
| 2026-05-09 19:22 | 45.20052 | -65.17112 | 35089 ft | 556 kts | 54° |
| 2026-05-09 19:23 | 45.23982 | -65.07621 | 35082 ft | 556 kts | 54° |
| 2026-05-09 19:23 | 45.27893 | -64.98142 | 35088 ft | 556 kts | 55° |
| 2026-05-09 19:24 | 45.31804 | -64.88629 | 35092 ft | 556 kts | 55° |
| 2026-05-09 19:24 | 45.35699 | -64.79128 | 35109 ft | 556 kts | 55° |
| 2026-05-09 19:25 | 45.39562 | -64.69667 | 35086 ft | 556 kts | 55° |
| 2026-05-09 19:25 | 45.43442 | -64.60134 | 35091 ft | 556 kts | 55° |
| 2026-05-09 19:26 | 45.47318 | -64.50580 | 35093 ft | 556 kts | 56° |
| 2026-05-09 19:26 | 45.51183 | -64.41019 | 35082 ft | 556 kts | 56° |
| 2026-05-09 19:27 | 45.55012 | -64.31514 | 35079 ft | 555 kts | 56° |
| 2026-05-09 19:27 | 45.58855 | -64.21942 | 35071 ft | 555 kts | 56° |
| 2026-05-09 19:28 | 45.62684 | -64.12372 | 35072 ft | 555 kts | 56° |
| 2026-05-09 19:28 | 45.66511 | -64.02773 | 35068 ft | 554 kts | 56° |
| 2026-05-09 19:29 | 45.70296 | -63.93248 | 35065 ft | 554 kts | 57° |
| 2026-05-09 19:29 | 45.74100 | -63.83641 | 35068 ft | 553 kts | 57° |
| 2026-05-09 19:30 | 45.77886 | -63.74048 | 35074 ft | 553 kts | 57° |
| 2026-05-09 19:30 | 45.81643 | -63.64494 | 35073 ft | 552 kts | 57° |
| 2026-05-09 19:31 | 45.85408 | -63.54885 | 35072 ft | 552 kts | 57° |
| 2026-05-09 19:31 | 45.89168 | -63.45257 | 35070 ft | 552 kts | 58° |
| 2026-05-09 19:32 | 45.92892 | -63.35686 | 35082 ft | 552 kts | 58° |
| 2026-05-09 19:32 | 45.96630 | -63.26048 | 35084 ft | 552 kts | 58° |
| 2026-05-09 19:33 | 46.00362 | -63.16390 | 35077 ft | 552 kts | 58° |
| 2026-05-09 19:33 | 46.04063 | -63.06778 | 35078 ft | 551 kts | 58° |
| 2026-05-09 19:34 | 46.07784 | -62.97080 | 35079 ft | 551 kts | 59° |
| 2026-05-09 19:34 | 46.11466 | -62.87450 | 35074 ft | 551 kts | 59° |
| 2026-05-09 19:35 | 46.15164 | -62.77742 | 35083 ft | 551 kts | 59° |
| 2026-05-09 19:35 | 46.18846 | -62.68044 | 35084 ft | 551 kts | 59° |
| 2026-05-09 19:36 | 46.22519 | -62.58333 | 35091 ft | 550 kts | 59° |
| 2026-05-09 19:36 | 46.26163 | -62.48665 | 35094 ft | 550 kts | 59° |
| 2026-05-09 19:37 | 46.29814 | -62.38945 | 35095 ft | 550 kts | 59° |
| 2026-05-09 19:37 | 46.33455 | -62.29216 | 35096 ft | 549 kts | 60° |
| 2026-05-09 19:38 | 46.37092 | -62.19462 | 35103 ft | 549 kts | 60° |
| 2026-05-09 19:38 | 46.40695 | -62.09763 | 35100 ft | 549 kts | 60° |
| 2026-05-09 19:39 | 46.44313 | -61.99992 | 35105 ft | 549 kts | 60° |
| 2026-05-09 19:39 | 46.47892 | -61.90290 | 35102 ft | 549 kts | 60° |
| 2026-05-09 19:40 | 46.51491 | -61.80496 | 35107 ft | 549 kts | 60° |
| 2026-05-09 19:40 | 46.55065 | -61.70737 | 35105 ft | 548 kts | 60° |
| 2026-05-09 19:41 | 46.58649 | -61.60913 | 35107 ft | 548 kts | 61° |
| 2026-05-09 19:41 | 46.61612 | -61.52764 | 35109 ft | 548 kts | 61° |
| 2026-05-09 19:42 | 46.65174 | -61.42938 | 35104 ft | 548 kts | 61° |
| 2026-05-09 19:42 | 46.68705 | -61.33159 | 35105 ft | 547 kts | 61° |
| 2026-05-09 19:43 | 46.72239 | -61.23333 | 35105 ft | 547 kts | 61° |
| 2026-05-09 19:43 | 46.75746 | -61.13551 | 35105 ft | 546 kts | 61° |
| 2026-05-09 19:44 | 46.79270 | -61.03683 | 35106 ft | 546 kts | 62° |
| 2026-05-09 19:44 | 46.82776 | -60.93829 | 35102 ft | 546 kts | 62° |
| 2026-05-09 19:45 | 46.86244 | -60.84046 | 35109 ft | 546 kts | 62° |
| 2026-05-09 19:45 | 46.89729 | -60.74178 | 35108 ft | 545 kts | 62° |
| 2026-05-09 19:46 | 46.93188 | -60.64347 | 35114 ft | 545 kts | 62° |
| 2026-05-09 19:46 | 46.96656 | -60.54454 | 35106 ft | 545 kts | 62° |
| 2026-05-09 19:47 | 47.00115 | -60.44549 | 35113 ft | 545 kts | 62° |
| 2026-05-09 19:47 | 47.03559 | -60.34648 | 35113 ft | 545 kts | 62° |
| 2026-05-09 19:48 | 47.06973 | -60.24799 | 35114 ft | 545 kts | 63° |
| 2026-05-09 19:48 | 47.10403 | -60.14865 | 35120 ft | 545 kts | 63° |
| 2026-05-09 19:49 | 47.13833 | -60.04895 | 35121 ft | 546 kts | 63° |
| 2026-05-09 19:49 | 47.17230 | -59.94981 | 35123 ft | 546 kts | 63° |
| 2026-05-09 19:50 | 47.20642 | -59.84984 | 35122 ft | 546 kts | 63° |
| 2026-05-09 19:50 | 47.24043 | -59.74983 | 35123 ft | 546 kts | 63° |
| 2026-05-09 19:51 | 47.27421 | -59.65014 | 35125 ft | 547 kts | 63° |
| 2026-05-09 19:51 | 47.30815 | -59.54957 | 35127 ft | 547 kts | 63° |
| 2026-05-09 19:52 | 47.34197 | -59.44896 | 35128 ft | 547 kts | 63° |
| 2026-05-09 19:52 | 47.37572 | -59.34816 | 35130 ft | 547 kts | 63° |
| 2026-05-09 19:53 | 47.40920 | -59.24778 | 35128 ft | 548 kts | 64° |
| 2026-05-09 19:53 | 47.44277 | -59.14674 | 35129 ft | 548 kts | 64° |
| 2026-05-09 19:54 | 47.47628 | -59.04548 | 35127 ft | 548 kts | 64° |
| 2026-05-09 19:54 | 47.50952 | -58.94466 | 35125 ft | 547 kts | 64° |
| 2026-05-09 19:55 | 47.54282 | -58.84324 | 35126 ft | 547 kts | 64° |
| 2026-05-09 19:56 | 47.59258 | -58.69095 | 35117 ft | 546 kts | 64° |
| 2026-05-09 19:56 | 47.62558 | -58.58943 | 35113 ft | 546 kts | 64° |
| 2026-05-09 19:57 | 47.65827 | -58.48848 | 35108 ft | 545 kts | 64° |
| 2026-05-09 19:57 | 47.69112 | -58.38663 | 35105 ft | 545 kts | 65° |
| 2026-05-09 19:58 | 47.72382 | -58.28485 | 35104 ft | 545 kts | 65° |
| 2026-05-09 19:58 | 47.75619 | -58.18370 | 35096 ft | 545 kts | 65° |
| 2026-05-09 19:59 | 47.78873 | -58.08156 | 35095 ft | 545 kts | 65° |
| 2026-05-09 19:59 | 47.82119 | -57.97930 | 35092 ft | 545 kts | 65° |
| 2026-05-09 20:00 | 47.85332 | -57.87765 | 35083 ft | 546 kts | 65° |
| 2026-05-09 20:00 | 47.88559 | -57.77517 | 35091 ft | 546 kts | 65° |
| 2026-05-09 20:01 | 47.91783 | -57.67235 | 35081 ft | 546 kts | 66° |
| 2026-05-09 20:01 | 47.94978 | -57.57004 | 35077 ft | 547 kts | 66° |
| 2026-05-09 20:02 | 47.98182 | -57.46701 | 35080 ft | 547 kts | 66° |
| 2026-05-09 20:02 | 48.01383 | -57.36367 | 35070 ft | 547 kts | 66° |
| 2026-05-09 20:03 | 48.06165 | -57.20846 | 35062 ft | 548 kts | 66° |
| 2026-05-09 20:03 | 48.09327 | -57.10531 | 35056 ft | 548 kts | 66° |
| 2026-05-09 20:04 | 48.12497 | -57.00147 | 35044 ft | 548 kts | 66° |
| 2026-05-09 20:04 | 48.15661 | -56.89738 | 35036 ft | 548 kts | 67° |
| 2026-05-09 20:05 | 48.18792 | -56.79396 | 35019 ft | 548 kts | 67° |
| 2026-05-09 20:05 | 48.21936 | -56.68963 | 35009 ft | 548 kts | 67° |
| 2026-05-09 20:06 | 48.25069 | -56.58526 | 35001 ft | 547 kts | 67° |
| 2026-05-09 20:06 | 48.28168 | -56.48158 | 34997 ft | 547 kts | 67° |
| 2026-05-09 20:07 | 48.31278 | -56.37711 | 34995 ft | 547 kts | 68° |
| 2026-05-09 20:07 | 48.34383 | -56.27233 | 35000 ft | 547 kts | 68° |
| 2026-05-09 20:08 | 48.38990 | -56.11602 | 35011 ft | 547 kts | 68° |
| 2026-05-09 20:09 | 48.42063 | -56.01123 | 35012 ft | 547 kts | 68° |
| 2026-05-09 20:09 | 48.45133 | -55.90608 | 35015 ft | 546 kts | 68° |
| 2026-05-09 20:10 | 48.48159 | -55.80196 | 35020 ft | 546 kts | 68° |
| 2026-05-09 20:10 | 48.51201 | -55.69688 | 35017 ft | 545 kts | 69° |
| 2026-05-09 20:11 | 48.54227 | -55.59186 | 35023 ft | 545 kts | 69° |
| 2026-05-09 20:11 | 48.57228 | -55.48728 | 35034 ft | 545 kts | 69° |
| 2026-05-09 20:12 | 48.60232 | -55.38213 | 35039 ft | 545 kts | 69° |
| 2026-05-09 20:12 | 48.63227 | -55.27682 | 35044 ft | 545 kts | 69° |
| 2026-05-09 20:13 | 48.66214 | -55.17135 | 35049 ft | 545 kts | 70° |
| 2026-05-09 20:13 | 48.69189 | -55.06581 | 35054 ft | 545 kts | 70° |
| 2026-05-09 20:14 | 48.72146 | -54.96045 | 35069 ft | 546 kts | 70° |
| 2026-05-09 20:14 | 48.75113 | -54.85430 | 35077 ft | 546 kts | 70° |
| 2026-05-09 20:15 | 48.78069 | -54.74805 | 35078 ft | 546 kts | 70° |
| 2026-05-09 20:15 | 48.80995 | -54.64241 | 35082 ft | 546 kts | 71° |
| 2026-05-09 20:16 | 48.83935 | -54.53577 | 35092 ft | 546 kts | 71° |